Aérodrome :
LOGIN :

S'inscrire | Disclaimer

   EN    FR    IT 

 










Légende :    VFR   VFR Marginal   IFR   IFR Intensif   IFR Très Intensif
Visi : 
Plafond : 
>= 8 km
>= 3000ft
5 à 8 km
1000 à 3000 ft
1500m à 5 km
500 à 1000 ft
800 à 1500m
200 à 500 ft
< 800m
< 200 ft
Symboles :   Orages  Brouillard  Fortes neiges  Fortes précipitations  Vent > 20 kt
SIGMETs :   Divers  Orages  Givrage  Turbulence  Onde Orograph.  Cendres Volcan.






- Altitude de l'aérodrome : 302 ft
- Code IATA : CGN


EDDK - Cologne Bonn

DERNIER METAR :
  • 150820Z 24014KT 9999 FEW015 09/05 Q0999 NOSIG

METARs EXPIRÉS :
  • 150750Z 24015KT 9999 FEW015 08/06 Q0998 NOSIG
  • 150720Z 28015KT 9999 FEW015 SCT025 08/05 Q0997 RESHRA NOSIG
  • 150650Z 24014KT 9999 SHRA FEW015 SCT023CB 10/08 Q0996 TEMPO 22025G40KT
  • 150620Z 22013KT 9999 -SHRA FEW025CB BKN035 11/06 Q0995 TEMPO 22025G40KT SHRA
  • 150550Z 22013KT 9999 -RA FEW025 SCT035 11/07 Q0994 TEMPO 22020G35KT SHRA BKN025CB

TAF AMD TAF EDDK
Valide du 15 à 06h jusqu'au 16 à 12h UTC


150617Z 1506/1612 16010KT 9999 BKN020
BECMG 1506/1508 23012KT
TEMPO 1506/1509 25025G40KT 4000 SHRA BKN014TCU
TEMPO 1509/1512 25015G25KT
BECMG 1515/1518 15007KT
PROB30
TEMPO 1608/1610 RA



MET'MAP, la Météo Aéronautique d'un coup d'oeil ! - Copyright ORBIFLY Décembre 2007 - Disclaimer

ORBIFLY MET'MAP TEAM :

Programmation & Développement : Alexandra Zaïnal
Sur une idée originale de : Baudouin d'Aumeries
Assistance à la programmation : Marc-Olivier Méhu
Soutien technique & logistique : Manuel Goepfert

Contact : metmap@orbifly.com




SOURCES & CREDITS :

   NOAA